Time;durP1;ratioP1;P1;durP2;ratioP2;P2;SDS_P1;SDS_P2;PMS_P1;PMS_P2;Temp;Humidity;BMP_temperature;BMP_pressure;BME280_temperature;BME280_humidity;BME280_pressure;Samples;Min_cycle;Max_cycle;Signal;HPM_P1;HPM_P2
2021/03/16 00:01:09;;;;;;;;;;;;;;;6.57;100.00;100115.28;5095829;28;19924;-91
2021/03/16 00:03:51;;;;;;;;;;;;;;;6.59;100.00;100126.81;5078680;28;19958;-90
2021/03/16 00:06:50;;;;;;;;;;;;;;;6.67;100.00;100134.91;5062368;28;20387;-90
2021/03/16 00:09:16;;;;;;;;;;;;;;;6.71;100.00;100132.19;5062131;28;20371;-91
2021/03/16 00:11:43;;;;;;;;;;;;;;;6.73;100.00;100127.88;5075441;28;20360;-91
2021/03/16 00:14:10;;;;;;;;;;;;;;;6.77;100.00;100134.28;5077655;28;19947;-89
2021/03/16 00:16:36;;;;;;;;;;;;;;;6.89;100.00;100136.06;5061950;28;19947;-90
2021/03/16 00:19:03;;;;;;;;;;;;;;;6.86;100.00;100131.25;5061808;28;19924;-91
2021/03/16 00:21:30;;;;;;;;;;;;;;;6.85;100.00;100135.19;5078658;28;19924;-90
2021/03/16 00:23:56;;;;;;;;;;;;;;;6.85;100.00;100135.19;5095449;28;19931;-91
2021/03/16 00:26:23;;;;;;;;;;;;;;;6.84;100.00;100126.06;5077426;28;19924;-90
2021/03/16 00:28:50;;;;;;;;;;;;;;;6.90;100.00;100126.53;5062306;28;19924;-90
2021/03/16 00:31:16;;;;;;;;;;;;;;;6.86;100.00;100129.25;5055393;28;20390;-90
2021/03/16 00:33:43;;;;;;;;;;;;;;;6.91;100.00;100136.47;5061399;28;20399;-90
2021/03/16 00:36:10;;;;;;;;;;;;;;;6.94;100.00;100121.81;5061640;28;20412;-90
2021/03/16 00:38:36;;;;;;;;;;;;;;;6.93;100.00;100123.00;5078035;28;20287;-89
2021/03/16 00:41:03;;;;;;;;;;;;;;;6.95;100.00;100126.22;5061765;28;20014;-90
2021/03/16 00:43:30;;;;;;;;;;;;;;;7.00;100.00;100132.25;5078132;28;19931;-90
2021/03/16 00:45:58;;;;;;;;;;;;;;;7.08;100.00;100116.50;5078160;28;20405;-90
2021/03/16 00:48:25;;;;;;;;;;;;;;;7.03;100.00;100120.41;5058032;28;20406;-90
2021/03/16 00:50:55;;;;;;;;;;;;;;;7.15;100.00;100116.56;5078459;28;19932;-89
2021/03/16 00:53:22;;;;;;;;;;;;;;;7.21;100.00;100123.41;5095259;28;19931;-89
2021/03/16 00:55:53;;;;;;;;;;;;;;;7.18;100.00;100146.41;5072013;28;19999;-90
2021/03/16 00:58:27;;;;;;;;;;;;;;;7.16;100.00;100143.22;5077256;28;19945;-90
2021/03/16 01:00:54;;;;;;;;;;;;;;;7.09;100.00;100148.66;5094875;28;20387;-91
2021/03/16 01:03:21;;;;;;;;;;;;;;;7.01;100.00;100149.75;5044950;28;20291;-90
2021/03/16 01:05:48;;;;;;;;;;;;;;;6.98;100.00;100156.81;5077848;28;19951;-90
2021/03/16 01:08:16;;;;;;;;;;;;;;;6.98;100.00;100158.81;5061283;28;19924;-90
2021/03/16 01:10:43;;;;;;;;;;;;;;;6.94;100.00;100160.72;5060877;28;20382;-90
2021/03/16 01:13:10;;;;;;;;;;;;;;;6.96;100.00;100158.38;5069178;28;19924;-90
2021/03/16 01:15:37;;;;;;;;;;;;;;;7.02;100.00;100168.00;5100296;28;20282;-89
2021/03/16 01:18:04;;;;;;;;;;;;;;;7.03;100.00;100175.97;5077675;28;20579;-90
2021/03/16 01:20:30;;;;;;;;;;;;;;;7.03;100.00;100191.84;5094560;28;19924;-90
2021/03/16 01:22:57;;;;;;;;;;;;;;;7.03;100.00;100197.41;5099164;28;19989;-90
2021/03/16 01:25:24;;;;;;;;;;;;;;;7.01;100.00;100208.88;5087031;28;19924;-90
2021/03/16 01:27:51;;;;;;;;;;;;;;;6.98;100.00;100209.63;5060574;28;19924;-90
2021/03/16 01:30:18;;;;;;;;;;;;;;;6.94;100.00;100210.75;5060627;28;19971;-90
2021/03/16 01:32:45;;;;;;;;;;;;;;;6.86;100.00;100214.59;5093841;28;20379;-89
2021/03/16 01:35:13;;;;;;;;;;;;;;;6.87;100.00;100230.09;5093986;28;19924;-90
2021/03/16 01:37:41;;;;;;;;;;;;;;;6.85;100.00;100243.53;5060469;28;19965;-90
2021/03/16 01:40:18;;;;;;;;;;;;;;;6.88;100.00;100278.91;5060341;28;20395;-90
2021/03/16 01:42:45;;;;;;;;;;;;;;;6.91;100.00;100317.06;5060658;28;19930;-89
2021/03/16 01:45:13;;;;;;;;;;;;;;;6.92;100.00;100352.81;5043543;28;19924;-91
2021/03/16 01:47:41;;;;;;;;;;;;;;;6.94;100.00;100394.94;5060099;28;19924;-90
2021/03/16 01:50:12;;;;;;;;;;;;;;;6.98;100.00;100420.03;5077037;28;20018;-90
2021/03/16 01:52:39;;;;;;;;;;;;;;;6.99;100.00;100441.91;5110716;28;19931;-89
2021/03/16 01:55:07;;;;;;;;;;;;;;;6.93;100.00;100462.00;5060164;28;20420;-90
2021/03/16 01:57:34;;;;;;;;;;;;;;;6.92;100.00;100463.19;5059886;28;20387;-89
2021/03/16 02:00:19;;;;;;;;;;;;;;;6.92;100.00;100490.97;5076494;28;19935;-90
2021/03/16 02:03:04;;;;;;;;;;;;;;;6.92;100.00;100497.31;5108235;28;19925;-90
2021/03/16 02:05:50;;;;;;;;;;;;;;;6.98;100.00;100506.19;5093361;28;19973;-89
2021/03/16 02:08:45;;;;;;;;;;;;;;;6.98;100.00;100528.44;5093533;28;19927;-90
2021/03/16 02:11:49;;;;;;;;;;;;;;;7.00;100.00;100542.75;5106809;28;19986;-89
2021/03/16 02:14:36;;;;;;;;;;;;;;;7.03;100.00;100564.25;5078967;28;20073;-89
2021/03/16 02:17:24;;;;;;;;;;;;;;;7.02;100.00;100573.78;5095769;28;19928;-89
2021/03/16 02:20:09;;;;;;;;;;;;;;;7.03;100.00;100706.00;5076483;28;19947;-90
2021/03/16 02:22:56;;;;;;;;;;;;;;;7.04;100.00;100782.69;5062459;28;19931;-89
2021/03/16 02:25:49;;;;;;;;;;;;;;;7.04;100.00;100821.59;5093298;28;19982;-90
2021/03/16 02:28:41;;;;;;;;;;;;;;;7.03;100.00;100864.44;5078874;28;19977;-90
2021/03/16 02:31:27;;;;;;;;;;;;;;;7.06;100.00;100897.88;5079201;28;19932;-90
2021/03/16 02:34:16;;;;;;;;;;;;;;;7.10;100.00;100925.78;5086858;28;20290;-89
2021/03/16 02:37:06;;;;;;;;;;;;;;;7.14;100.00;100944.19;5075874;28;19931;-90
2021/03/16 02:39:52;;;;;;;;;;;;;;;7.13;100.00;100958.44;5079197;28;19924;-90
2021/03/16 02:42:38;;;;;;;;;;;;;;;7.13;100.00;100975.91;5072942;28;20033;-90
2021/03/16 02:45:24;;;;;;;;;;;;;;;7.17;100.00;100989.94;5090371;28;19981;-90
2021/03/16 02:48:10;;;;;;;;;;;;;;;7.18;100.00;101005.44;5092908;28;19924;-90
2021/03/16 02:50:56;;;;;;;;;;;;;;;7.22;100.00;101006.34;5107318;28;20065;-89
2021/03/16 02:53:43;;;;;;;;;;;;;;;7.26;100.00;101023.94;5092734;28;19969;-90
2021/03/16 02:56:29;;;;;;;;;;;;;;;7.33;100.00;101043.59;5075871;28;19973;-89
2021/03/16 02:59:15;;;;;;;;;;;;;;;7.34;100.00;101057.19;5092610;28;20452;-90
2021/03/16 03:02:01;;;;;;;;;;;;;;;7.34;100.00;101082.22;5078662;28;19931;-90
2021/03/16 03:04:47;;;;;;;;;;;;;;;7.31;100.00;101104.34;5093058;28;20015;-91
2021/03/16 03:07:33;;;;;;;;;;;;;;;7.30;100.00;101106.31;5093133;28;19927;-90
2021/03/16 03:10:18;;;;;;;;;;;;;;;7.33;100.00;101268.88;5092738;28;19929;-90
2021/03/16 03:13:04;;;;;;;;;;;;;;;7.35;100.00;101286.03;5078311;28;19924;-90
2021/03/16 03:15:51;;;;;;;;;;;;;;;7.36;100.00;101290.44;5092562;28;19938;-89
2021/03/16 03:18:36;;;;;;;;;;;;;;;7.38;100.00;101315.94;5092572;28;19925;-90
2021/03/16 03:21:27;;;;;;;;;;;;;;;7.41;100.00;101348.59;5093395;28;19970;-90
2021/03/16 03:24:15;;;;;;;;;;;;;;;7.43;100.00;101351.03;5096862;28;19924;-91
2021/03/16 03:27:03;;;;;;;;;;;;;;;7.41;100.00;101373.66;5082312;28;19925;-90
2021/03/16 03:29:49;;;;;;;;;;;;;;;7.40;100.00;101391.50;5082532;28;19928;-91
2021/03/16 03:32:36;;;;;;;;;;;;;;;7.38;100.00;101394.63;5075967;28;19925;-89
2021/03/16 03:35:23;;;;;;;;;;;;;;;7.37;100.00;101400.53;5091157;28;19924;-90
2021/03/16 03:38:08;;;;;;;;;;;;;;;7.35;100.00;101411.19;5096320;28;19935;-90
2021/03/16 03:40:54;;;;;;;;;;;;;;;7.36;100.00;101413.63;5096214;28;19973;-90
2021/03/16 03:43:41;;;;;;;;;;;;;;;7.32;100.00;101423.00;5082022;28;19924;-90
2021/03/16 03:46:43;;;;;;;;;;;;;;;7.31;100.00;101444.44;5084236;28;20006;-89
2021/03/16 03:49:29;;;;;;;;;;;;;;;7.32;100.00;101456.38;5098733;28;20286;-89
2021/03/16 03:52:17;;;;;;;;;;;;;;;7.33;100.00;101444.09;5075881;28;19931;-90
2021/03/16 03:55:05;;;;;;;;;;;;;;;7.34;100.00;101463.25;5075750;28;19929;-90
2021/03/16 03:58:18;;;;;;;;;;;;;;;7.36;100.00;101468.47;5083752;28;19924;-89
2021/03/16 04:01:04;;;;;;;;;;;;;;;7.39;100.00;101470.56;5095817;28;19924;-90
2021/03/16 04:03:50;;;;;;;;;;;;;;;7.41;100.00;101476.56;5095823;28;20049;-89
2021/03/16 04:06:35;;;;;;;;;;;;;;;7.53;100.00;101473.81;5080912;28;20019;-90
2021/03/16 04:09:20;;;;;;;;;;;;;;;7.56;100.00;101489.03;5081567;28;19931;-90
2021/03/16 04:12:06;;;;;;;;;;;;;;;7.59;100.00;101497.47;5084247;28;19967;-90
2021/03/16 04:14:52;;;;;;;;;;;;;;;7.67;100.00;101493.78;5095474;28;19925;-90
2021/03/16 04:17:38;;;;;;;;;;;;;;;7.72;100.00;101513.03;5078705;28;19923;-90
2021/03/16 04:20:24;;;;;;;;;;;;;;;7.74;100.00;101513.50;5075509;28;19931;-90
2021/03/16 04:23:09;;;;;;;;;;;;;;;7.79;100.00;101510.50;5091292;28;19951;-89
2021/03/16 04:25:54;;;;;;;;;;;;;;;7.79;100.00;101502.13;5095352;28;19947;-89
2021/03/16 04:28:39;;;;;;;;;;;;;;;7.81;100.00;100163.97;5078433;28;20316;-90
2021/03/16 04:31:24;;;;;;;;;;;;;;;7.83;100.00;100166.38;5078423;28;19928;-90
2021/03/16 04:34:09;;;;;;;;;;;;;;;7.83;100.00;100172.72;5094194;28;19931;-90
2021/03/16 04:36:54;;;;;;;;;;;;;;;7.84;100.00;100177.13;5064376;28;19970;-91
2021/03/16 04:39:39;;;;;;;;;;;;;;;7.84;100.00;100179.91;5074773;28;19924;-90
2021/03/16 04:42:24;;;;;;;;;;;;;;;7.86;100.00;100183.09;5077341;28;20387;-90
2021/03/16 04:45:10;;;;;;;;;;;;;;;7.88;100.00;100177.97;5095119;28;19924;-90
2021/03/16 04:47:55;;;;;;;;;;;;;;;7.89;100.00;100168.41;5089397;28;19925;-89
2021/03/16 04:50:40;;;;;;;;;;;;;;;7.91;100.00;100174.41;5075231;28;19924;-89
2021/03/16 04:53:25;;;;;;;;;;;;;;;7.94;100.00;100950.22;5109783;28;19924;-90
2021/03/16 04:56:09;;;;;;;;;;;;;;;7.95;100.00;100985.25;5095105;28;19931;-91
2021/03/16 04:58:55;;;;;;;;;;;;;;;7.96;100.00;101056.47;5095036;28;19931;-91
2021/03/16 05:01:40;;;;;;;;;;;;;;;7.96;100.00;101744.16;5074688;28;20302;-90
2021/03/16 05:04:26;;;;;;;;;;;;;;;7.98;100.00;101769.69;5107565;28;19924;-90
2021/03/16 05:07:11;;;;;;;;;;;;;;;7.99;100.00;101787.22;5074526;28;19924;-89
2021/03/16 05:09:56;;;;;;;;;;;;;;;8.07;100.00;101794.69;5081945;28;19972;-91
2021/03/16 05:12:41;;;;;;;;;;;;;;;8.09;100.00;101792.38;5094692;28;20291;-90
2021/03/16 05:15:26;;;;;;;;;;;;;;;8.15;100.00;101791.00;5077689;28;19931;-91
2021/03/16 05:18:11;;;;;;;;;;;;;;;8.16;100.00;101785.09;5077468;28;19924;-90
2021/03/16 05:20:56;;;;;;;;;;;;;;;8.14;100.00;101779.03;5108903;28;19930;-90
2021/03/16 05:23:41;;;;;;;;;;;;;;;8.16;100.00;101764.78;5089538;28;19932;-90
2021/03/16 05:26:25;;;;;;;;;;;;;;;8.11;100.00;101734.34;5088346;28;20390;-89
2021/03/16 05:29:18;;;;;;;;;;;;;;;8.10;100.00;101727.97;5097069;28;19997;-91
2021/03/16 05:32:03;;;;;;;;;;;;;;;8.12;100.00;101708.13;5077418;28;19925;-92
2021/03/16 05:34:49;;;;;;;;;;;;;;;8.11;100.00;101698.97;5077598;28;19929;-92
2021/03/16 05:37:36;;;;;;;;;;;;;;;8.14;100.00;101706.63;5094838;28;19924;-90
2021/03/16 05:40:23;;;;;;;;;;;;;;;8.12;100.00;101681.09;5077483;28;20358;-92
2021/03/16 05:43:09;;;;;;;;;;;;;;;8.12;100.00;101658.78;5077752;28;19931;-91
2021/03/16 05:45:56;;;;;;;;;;;;;;;8.12;100.00;101628.16;5077244;28;19924;-92
2021/03/16 05:48:47;;;;;;;;;;;;;;;8.10;100.00;101616.56;5094667;28;19924;-92
2021/03/16 05:51:36;;;;;;;;;;;;;;;8.06;100.00;101610.06;5077430;28;20434;-92
2021/03/16 05:54:21;;;;;;;;;;;;;;;8.07;100.00;101611.69;5063549;28;19923;-92
2021/03/16 05:57:08;;;;;;;;;;;;;;;8.06;100.00;101593.34;5077414;28;19947;-93
2021/03/16 05:59:53;;;;;;;;;;;;;;;8.05;100.00;101602.88;5077408;28;19931;-91
2021/03/16 06:02:38;;;;;;;;;;;;;;;8.06;100.00;101593.34;5077134;28;19928;-92
2021/03/16 06:05:23;;;;;;;;;;;;;;;8.07;100.00;101571.88;5077189;28;20397;-91
2021/03/16 06:08:08;;;;;;;;;;;;;;;8.08;100.00;101557.63;5073784;28;20398;-93
2021/03/16 06:10:53;;;;;;;;;;;;;;;8.08;100.00;101515.03;5061066;28;19947;-91
2021/03/16 06:13:51;;;;;;;;;;;;;;;8.04;100.00;101489.03;5079444;28;19935;-92
2021/03/16 06:16:37;;;;;;;;;;;;;;;8.11;100.00;101501.22;5080161;28;19924;-90
2021/03/16 06:19:30;;;;;;;;;;;;;;;8.07;100.00;101480.81;5077908;28;19931;-90
2021/03/16 06:22:16;;;;;;;;;;;;;;;8.10;100.00;101410.50;5059256;28;19925;-91
2021/03/16 06:25:01;;;;;;;;;;;;;;;8.10;100.00;101388.22;5075136;28;20271;-86
2021/03/16 06:27:46;;;;;;;;;;;;;;;8.07;100.00;101383.34;5076565;28;19977;-90
2021/03/16 06:30:31;;;;;;;;;;;;;;;8.12;100.00;101360.81;5093771;28;19946;-90
2021/03/16 06:33:21;;;;;;;;;;;;;;;8.11;100.00;101334.13;5079184;28;19924;-92
2021/03/16 06:36:09;;;;;;;;;;;;;;;8.12;100.00;101324.59;5079360;28;19951;-94
2021/03/16 06:38:54;;;;;;;;;;;;;;;8.14;100.00;101325.06;5079134;28;19924;-93
2021/03/16 06:41:39;;;;;;;;;;;;;;;8.12;100.00;101313.47;5091647;28;20722;-88
2021/03/16 06:44:24;;;;;;;;;;;;;;;8.14;100.00;101308.38;5092984;28;19925;-89
2021/03/16 06:47:13;;;;;;;;;;;;;;;8.11;100.00;101297.94;5093927;28;19928;-89
2021/03/16 06:49:58;;;;;;;;;;;;;;;8.11;100.00;101272.88;5072441;28;19925;-89
2021/03/16 06:52:49;;;;;;;;;;;;;;;8.14;100.00;101283.28;5078370;28;19978;-88
2021/03/16 06:55:35;;;;;;;;;;;;;;;8.14;100.00;101277.72;5087066;28;19924;-89
2021/03/16 06:58:31;;;;;;;;;;;;;;;8.09;100.00;101257.69;5096840;28;19985;-90
2021/03/16 07:01:19;;;;;;;;;;;;;;;8.04;100.00;101222.53;5092664;28;19924;-90
2021/03/16 07:04:13;;;;;;;;;;;;;;;8.03;100.00;101226.47;5092866;28;19947;-89
2021/03/16 07:06:58;;;;;;;;;;;;;;;8.05;100.00;101218.59;5093047;28;19962;-90
2021/03/16 07:09:45;;;;;;;;;;;;;;;8.06;100.00;101236.91;5078678;28;20339;-91
2021/03/16 07:12:34;;;;;;;;;;;;;;;8.07;100.00;101238.56;5091490;28;19928;-90
2021/03/16 07:15:19;;;;;;;;;;;;;;;8.08;100.00;101245.72;5092656;28;19967;-89
2021/03/16 07:18:05;;;;;;;;;;;;;;;8.10;100.00;101251.78;5092656;28;19924;-89
2021/03/16 07:20:51;;;;;;;;;;;;;;;8.18;100.00;101261.91;5072142;28;19925;-89
2021/03/16 07:23:39;;;;;;;;;;;;;;;8.17;100.00;101276.19;5072948;28;19924;-89
2021/03/16 07:26:25;;;;;;;;;;;;;;;8.20;100.00;101281.06;5085833;28;20400;-89
2021/03/16 07:29:10;;;;;;;;;;;;;;;8.18;100.00;101284.19;5072321;28;19924;-89
2021/03/16 07:32:03;;;;;;;;;;;;;;;8.20;100.00;101283.84;5073256;28;19924;-81
2021/03/16 07:34:49;;;;;;;;;;;;;;;8.22;100.00;101289.88;5093415;28;20308;-90
2021/03/16 07:37:34;;;;;;;;;;;;;;;8.17;100.00;101290.94;5063205;28;19928;-92
2021/03/16 07:40:20;;;;;;;;;;;;;;;8.17;100.00;101299.31;5075701;28;19924;-92
2021/03/16 07:43:12;;;;;;;;;;;;;;;8.17;100.00;101299.31;5078395;28;19946;-92
2021/03/16 07:46:09;;;;;;;;;;;;;;;8.19;100.00;101305.34;5075268;28;19925;-91
2021/03/16 07:48:55;;;;;;;;;;;;;;;8.19;100.00;101319.25;5071693;28;19924;-91
2021/03/16 07:51:44;;;;;;;;;;;;;;;8.20;100.00;101306.13;5081394;28;19924;-92
2021/03/16 07:54:37;;;;;;;;;;;;;;;8.24;100.00;101326.59;5088484;28;19931;-92
2021/03/16 07:57:26;;;;;;;;;;;;;;;8.29;100.00;101329.09;5074723;28;19969;-93
2021/03/16 08:00:13;;;;;;;;;;;;;;;8.33;100.00;101343.97;5091696;28;19932;-92
2021/03/16 08:02:59;;;;;;;;;;;;;;;8.36;100.00;101380.25;5091695;28;20446;-90
2021/03/16 08:05:44;;;;;;;;;;;;;;;8.35;100.00;101400.94;5091513;28;20022;-93
2021/03/16 08:08:40;;;;;;;;;;;;;;;8.39;100.00;101418.56;5077034;28;19928;-93
2021/03/16 08:11:39;;;;;;;;;;;;;;;8.39;100.00;101612.78;5096586;28;20283;-92
2021/03/16 08:14:25;;;;;;;;;;;;;;;8.41;100.00;101633.56;5081946;28;20683;-92
2021/03/16 08:17:11;;;;;;;;;;;;;;;8.43;100.00;101636.84;5096128;28;19931;-91
2021/03/16 08:19:56;;;;;;;;;;;;;;;8.44;100.00;101637.63;5075538;28;19928;-91
2021/03/16 08:22:41;;;;;;;;;;;;;;;8.44;100.00;101701.72;5074423;28;19956;-91
2021/03/16 08:25:26;;;;;;;;;;;;;;;8.46;100.00;101727.28;5078754;28;20294;-87
2021/03/16 08:28:12;;;;;;;;;;;;;;;8.51;100.00;101749.34;5072761;28;19925;-83
2021/03/16 08:30:57;;;;;;;;;;;;;;;8.54;100.00;101866.50;5086341;28;19924;-78
2021/03/16 08:33:44;;;;;;;;;;;;;;;8.59;100.00;101896.97;5079492;28;19924;-83
2021/03/16 08:36:37;;;;;;;;;;;;;;;8.65;100.00;101903.13;5092587;28;19939;-82
2021/03/16 08:39:24;;;;;;;;;;;;;;;8.63;100.00;101891.53;5092801;28;19924;-81
2021/03/16 08:42:09;;;;;;;;;;;;;;;8.59;100.00;101902.53;5091609;28;20366;-82
2021/03/16 08:44:54;;;;;;;;;;;;;;;8.55;100.00;101901.59;5092721;28;19924;-82
2021/03/16 08:47:40;;;;;;;;;;;;;;;8.52;100.00;101891.13;5088353;28;19931;-84
2021/03/16 08:50:53;;;;;;;;;;;;;;;8.52;100.00;101879.16;5091023;28;19924;-88
2021/03/16 08:53:44;;;;;;;;;;;;;;;8.52;100.00;101868.84;5088295;28;19962;-77
2021/03/16 08:56:29;;;;;;;;;;;;;;;8.45;100.00;101851.84;5086584;28;19929;-83
2021/03/16 08:59:17;;;;;;;;;;;;;;;8.41;100.00;101845.34;5089608;28;19925;-84
2021/03/16 09:02:07;;;;;;;;;;;;;;;8.40;100.00;101834.53;5088384;28;19924;-84
2021/03/16 09:04:52;;;;;;;;;;;;;;;8.41;100.00;101828.63;5092460;28;19950;-83
2021/03/16 09:07:38;;;;;;;;;;;;;;;8.42;100.00;101830.25;5092334;28;19932;-85
2021/03/16 09:10:27;;;;;;;;;;;;;;;8.46;100.00;101824.81;5090242;28;20010;-82
2021/03/16 09:13:12;;;;;;;;;;;;;;;8.54;100.00;101833.06;5089100;28;19924;-81
2021/03/16 09:15:58;;;;;;;;;;;;;;;8.61;100.00;101822.19;5091133;28;19930;-80
2021/03/16 09:18:45;;;;;;;;;;;;;;;8.63;100.00;101825.44;5090897;28;20279;-81
2021/03/16 09:21:31;;;;;;;;;;;;;;;8.65;100.00;101797.19;5079295;28;19924;-84
2021/03/16 09:24:24;;;;;;;;;;;;;;;8.66;100.00;101643.53;5084036;28;19974;-83
2021/03/16 09:27:09;;;;;;;;;;;;;;;8.66;100.00;101635.19;5085803;28;19935;-84
2021/03/16 09:29:55;;;;;;;;;;;;;;;8.69;100.00;101633.69;5086890;28;19931;-79
2021/03/16 09:32:42;;;;;;;;;;;;;;;8.71;100.00;101626.59;5081188;28;19932;-92
2021/03/16 09:35:28;;;;;;;;;;;;;;;8.74;100.00;101614.75;5084387;28;19955;-90
2021/03/16 09:38:17;;;;;;;;;;;;;;;8.79;100.00;101575.47;5091675;28;19931;-90
2021/03/16 09:40:58;;;;;;;;;;;;;;;8.84;100.00;101575.25;5089942;28;19928;-84
2021/03/16 09:43:36;;;;;;;;;;;;;;;8.88;100.00;101603.22;5076271;28;20018;-91
2021/03/16 09:46:06;;;;;;;;;;;;;;;8.99;100.00;101604.38;5058236;28;19977;-90
2021/03/16 09:48:34;;;;;;;;;;;;;;;9.07;100.00;101601.44;5058231;28;19928;-90
2021/03/16 09:51:14;;;;;;;;;;;;;;;9.16;100.00;101598.50;5091130;28;19989;-87
2021/03/16 09:53:57;;;;;;;;;;;;;;;9.28;100.00;101606.84;5089497;28;19931;-85
2021/03/16 09:56:31;;;;;;;;;;;;;;;9.28;100.00;101614.38;5090181;28;19931;-87
2021/03/16 09:58:59;;;;;;;;;;;;;;;9.24;100.00;101613.47;5078177;28;19974;-85
2021/03/16 10:01:26;;;;;;;;;;;;;;;9.14;100.00;101600.84;5090767;28;20018;-87
2021/03/16 10:03:56;;;;;;;;;;;;;;;9.06;100.00;101599.81;5088868;28;19928;-85
2021/03/16 10:06:33;;;;;;;;;;;;;;;9.01;100.00;101597.25;5089881;28;20394;-85
2021/03/16 10:09:01;;;;;;;;;;;;;;;8.97;100.00;101590.78;5090132;28;19924;-91
2021/03/16 10:11:32;;;;;;;;;;;;;;;9.07;100.00;101598.63;5074772;28;19931;-86
2021/03/16 10:13:59;;;;;;;;;;;;;;;9.14;100.00;101601.66;5085388;28;20299;-89
2021/03/16 10:16:28;;;;;;;;;;;;;;;9.12;100.00;101601.19;5080775;28;19924;-86
2021/03/16 10:18:54;;;;;;;;;;;;;;;9.10;100.00;101600.72;5056497;28;20375;-85
2021/03/16 10:21:28;;;;;;;;;;;;;;;9.08;100.00;101596.66;5074071;28;19931;-87
2021/03/16 10:24:04;;;;;;;;;;;;;;;9.09;100.00;101590.75;5076788;28;19939;-88
2021/03/16 10:26:31;;;;;;;;;;;;;;;9.20;100.00;101593.84;5090758;28;19924;-86
2021/03/16 10:29:08;;;;;;;;;;;;;;;9.31;100.00;101596.94;5093413;28;19924;-95
2021/03/16 10:31:35;;;;;;;;;;;;;;;9.38;100.00;101594.34;5060332;28;19924;-94
2021/03/16 10:34:06;;;;;;;;;;;;;;;9.35;100.00;101586.69;5064739;28;19924;-94
2021/03/16 10:36:36;;;;;;;;;;;;;;;9.31;100.00;101600.56;5047545;28;19924;-96
2021/03/16 10:39:25;;;;;;;;;;;;;;;9.25;100.00;101579.66;5088454;28;20375;-89
2021/03/16 10:41:52;;;;;;;;;;;;;;;9.39;100.00;101593.19;5105901;28;19931;-85
2021/03/16 10:44:18;;;;;;;;;;;;;;;9.53;100.00;101574.03;5088973;28;19970;-89
2021/03/16 10:46:46;;;;;;;;;;;;;;;9.60;100.00;101575.06;5085677;28;19932;-82
2021/03/16 10:49:13;;;;;;;;;;;;;;;9.55;100.00;101592.06;5089995;28;20019;-84
2021/03/16 10:51:40;;;;;;;;;;;;;;;9.71;100.00;101575.38;5088565;28;19924;-80
2021/03/16 10:54:06;;;;;;;;;;;;;;;9.58;100.00;101582.16;5092038;28;20036;-89
2021/03/16 10:56:33;;;;;;;;;;;;;;;9.62;100.00;101583.88;5039193;28;19924;-89
2021/03/16 10:58:59;;;;;;;;;;;;;;;9.55;100.00;101588.47;5075773;28;19925;-87
2021/03/16 11:01:26;;;;;;;;;;;;;;;9.49;100.00;101573.97;5048994;28;19936;-88
2021/03/16 11:03:53;;;;;;;;;;;;;;;9.61;100.00;101570.28;5087765;28;20012;-88
2021/03/16 11:06:19;;;;;;;;;;;;;;;9.63;100.00;101581.91;5081405;28;19978;-88
2021/03/16 11:08:46;;;;;;;;;;;;;;;9.71;100.00;101553.03;5090502;28;19931;-89
2021/03/16 11:11:13;;;;;;;;;;;;;;;9.74;100.00;101557.91;5089113;28;20375;-85
2021/03/16 11:13:39;;;;;;;;;;;;;;;9.87;100.00;101560.25;5089499;28;19924;-85
2021/03/16 11:16:06;;;;;;;;;;;;;;;9.82;100.00;101568.06;5089349;28;19924;-90
2021/03/16 11:18:33;;;;;;;;;;;;;;;9.89;100.00;101562.69;5090200;28;19931;-90
2021/03/16 11:21:00;;;;;;;;;;;;;;;10.00;100.00;101570.16;5060305;28;19924;-91
2021/03/16 11:23:27;;;;;;;;;;;;;;;9.98;100.00;101585.66;5073878;28;19928;-91
2021/03/16 11:25:53;;;;;;;;;;;;;;;10.00;100.00;101600.88;5091573;28;19924;-89
2021/03/16 11:28:20;;;;;;;;;;;;;;;9.97;100.00;101597.97;5080580;28;19932;-88
2021/03/16 11:30:46;;;;;;;;;;;;;;;10.26;100.00;101597.59;5038693;28;20015;-89
2021/03/16 11:33:13;;;;;;;;;;;;;;;10.16;100.00;101617.69;5036825;28;19924;-95
2021/03/16 11:35:58;;;;;;;;;;;;;;;9.89;100.00;101635.31;5058410;28;19924;-88
2021/03/16 11:38:44;;;;;;;;;;;;;;;10.04;100.00;101640.88;5070493;28;19924;-92
2021/03/16 11:41:30;;;;;;;;;;;;;;;10.24;100.00;101645.44;5074636;28;19939;-94
2021/03/16 11:44:15;;;;;;;;;;;;;;;10.24;100.00;101642.66;5090185;28;19925;-86
2021/03/16 11:47:19;;;;;;;;;;;;;;;10.37;100.00;101648.97;5080107;28;19947;-82
2021/03/16 11:50:05;;;;;;;;;;;;;;;10.23;100.00;101670.97;5086646;28;19931;-87
2021/03/16 11:52:51;;;;;;;;;;;;;;;10.26;100.00;101698.19;5087426;28;19928;-82
2021/03/16 11:55:36;;;;;;;;;;;;;;;10.40;100.00;101709.75;5093664;28;19931;-87
2021/03/16 11:58:21;;;;;;;;;;;;;;;10.69;100.00;101731.69;5085243;28;19928;-86
2021/03/16 12:01:06;;;;;;;;;;;;;;;10.90;100.00;101749.81;5093379;28;19968;-87
2021/03/16 12:03:51;;;;;;;;;;;;;;;10.86;100.00;101748.91;5093627;28;20023;-91
2021/03/16 12:06:37;;;;;;;;;;;;;;;10.82;100.00;101777.97;5091705;28;19923;-85
2021/03/16 12:09:21;;;;;;;;;;;;;;;10.56;100.00;101783.25;5093235;28;19927;-95
2021/03/16 12:12:16;;;;;;;;;;;;;;;10.52;100.00;101790.75;5083953;28;19924;-95
2021/03/16 12:15:06;;;;;;;;;;;;;;;10.26;100.00;101805.22;5081946;28;19924;-93
2021/03/16 12:17:52;;;;;;;;;;;;;;;10.23;100.00;101813.47;5078204;28;19931;-94
2021/03/16 12:20:38;;;;;;;;;;;;;;;10.39;100.00;101825.53;5094609;28;19934;-88
2021/03/16 12:23:23;;;;;;;;;;;;;;;10.72;100.00;101835.25;5092795;28;19972;-85
2021/03/16 12:26:08;;;;;;;;;;;;;;;10.69;100.00;101866.72;5093479;28;19928;-85
2021/03/16 12:28:53;;;;;;;;;;;;;;;10.73;100.00;101889.22;5086554;28;19928;-84
2021/03/16 12:31:39;;;;;;;;;;;;;;;10.63;100.00;101910.09;5086484;28;19924;-85
2021/03/16 12:34:24;;;;;;;;;;;;;;;10.65;100.00;101937.72;5076610;28;19928;-90
2021/03/16 12:37:09;;;;;;;;;;;;;;;10.90;100.00;101947.66;5107264;28;19928;-87
2021/03/16 12:39:55;;;;;;;;;;;;;;;10.81;100.00;101960.97;5106697;28;19924;-86
2021/03/16 12:42:39;;;;;;;;;;;;;;;10.93;100.00;101972.09;5072192;28;19925;-85
2021/03/16 12:45:25;;;;;;;;;;;;;;;10.67;100.00;101980.13;5089948;28;20291;-90
2021/03/16 12:48:10;;;;;;;;;;;;;;;10.75;100.00;102007.16;5092229;28;19924;-86
2021/03/16 12:50:56;;;;;;;;;;;;;;;11.04;100.00;102015.22;5092800;28;19930;-84
2021/03/16 12:53:41;;;;;;;;;;;;;;;11.15;100.00;102029.50;5092498;28;20584;-91
2021/03/16 12:56:26;;;;;;;;;;;;;;;11.30;100.00;101987.53;5092095;28;20023;-82
2021/03/16 12:59:11;;;;;;;;;;;;;;;11.33;100.00;101821.63;5074130;28;19924;-81
2021/03/16 13:01:56;;;;;;;;;;;;;;;11.41;100.00;101711.44;5093226;28;19928;-91
2021/03/16 13:04:41;;;;;;;;;;;;;;;11.41;100.00;101640.63;5093042;28;19931;-84
2021/03/16 13:07:28;;;;;;;;;;;;;;;11.62;100.00;101615.88;5093368;28;19924;-86
2021/03/16 13:10:13;;;;;;;;;;;;;;;11.57;100.00;101558.19;5091458;28;19996;-88
2021/03/16 13:12:58;;;;;;;;;;;;;;;11.70;100.00;101523.25;5091600;28;20332;-87
2021/03/16 13:15:43;;;;;;;;;;;;;;;11.67;100.00;101501.59;5092946;28;19932;-88
2021/03/16 13:18:35;;;;;;;;;;;;;;;11.64;100.00;101479.94;5091358;28;20336;-82
2021/03/16 13:21:20;;;;;;;;;;;;;;;11.36;100.00;101439.41;5091032;28;19950;-87
2021/03/16 13:24:05;;;;;;;;;;;;;;;11.14;100.00;101415.78;5091153;28;19998;-88
2021/03/16 13:26:52;;;;;;;;;;;;;;;11.23;100.00;101413.56;5091103;28;19931;-90
2021/03/16 13:29:37;;;;;;;;;;;;;;;11.36;100.00;101412.19;5097858;28;19928;-89
2021/03/16 13:32:23;;;;;;;;;;;;;;;11.46;100.00;101393.97;5074169;28;19924;-89
2021/03/16 13:35:08;;;;;;;;;;;;;;;11.41;100.00;101389.50;5092942;28;19930;-89
2021/03/16 13:37:53;;;;;;;;;;;;;;;11.46;100.00;101361.19;5092011;28;19967;-89
2021/03/16 13:40:40;;;;;;;;;;;;;;;11.28;100.00;101337.69;5085685;28;20044;-90
2021/03/16 13:43:25;;;;;;;;;;;;;;;11.20;100.00;101333.16;5072116;28;19973;-92
2021/03/16 13:46:10;;;;;;;;;;;;;;;11.11;100.00;101321.41;5074637;28;20003;-94
2021/03/16 13:48:56;;;;;;;;;;;;;;;11.27;100.00;101324.88;5101209;28;19924;-89